createdAt,value
2017-12-16T00:03:24.627Z,16.73
2017-12-16T00:05:57.190Z,16.70
2017-12-16T00:08:25.099Z,17.92
2017-12-16T00:11:03.066Z,15.30
2017-12-16T00:21:22.753Z,14.32
2017-12-16T00:29:15.416Z,15.27
2017-12-16T00:36:59.123Z,15.60
2017-12-16T00:39:26.391Z,15.25
2017-12-16T00:41:59.360Z,14.15
2017-12-16T00:44:28.486Z,15.68
2017-12-16T00:49:28.122Z,19.05
2017-12-16T00:52:01.128Z,14.55
2017-12-16T00:57:03.576Z,20.05
2017-12-16T00:59:32.735Z,16.17
2017-12-16T01:04:31.219Z,22.27
2017-12-16T01:06:59.068Z,16.77
2017-12-16T01:09:29.407Z,21.35
2017-12-16T01:11:56.870Z,16.40
2017-12-16T01:14:28.879Z,17.58
2017-12-16T01:19:29.098Z,17.12
2017-12-16T01:21:59.722Z,18.37
2017-12-16T01:24:26.998Z,20.02
2017-12-16T01:29:30.693Z,22.35
2017-12-16T01:32:00.448Z,20.10
2017-12-16T01:34:36.359Z,21.75
2017-12-16T01:37:12.641Z,19.85
2017-12-16T01:39:39.919Z,17.08
2017-12-16T01:42:07.727Z,19.55
2017-12-16T01:44:38.824Z,16.50
2017-12-16T01:47:11.590Z,17.50
2017-12-16T01:49:39.831Z,19.50
2017-12-16T01:52:10.131Z,17.05
2017-12-16T01:54:39.793Z,17.08
2017-12-16T01:59:44.573Z,22.45
2017-12-16T02:02:13.129Z,18.67
2017-12-16T02:04:42.909Z,20.40
2017-12-16T02:07:14.777Z,21.05
2017-12-16T02:12:19.810Z,19.17
2017-12-16T02:14:47.266Z,34.80
2017-12-16T02:17:20.451Z,22.73
2017-12-16T02:19:49.987Z,21.45
2017-12-16T02:22:19.858Z,19.62
2017-12-16T02:24:50.551Z,21.50
2017-12-16T02:29:52.198Z,23.20
2017-12-16T02:34:59.626Z,22.62
2017-12-16T02:37:28.718Z,26.98
2017-12-16T02:39:55.698Z,25.35
2017-12-16T02:42:25.738Z,25.27
2017-12-16T02:44:56.865Z,26.98
2017-12-16T02:47:30.486Z,25.50
2017-12-16T02:57:42.128Z,25.30
2017-12-16T03:00:10.695Z,31.70
2017-12-16T03:05:13.922Z,25.52
2017-12-16T03:10:13.075Z,25.80
2017-12-16T03:12:41.227Z,26.48
2017-12-16T03:15:08.287Z,28.60
2017-12-16T03:17:35.994Z,33.65
2017-12-16T03:20:04.276Z,28.33
2017-12-16T03:22:32.900Z,30.50
2017-12-16T03:25:05.274Z,32.10
2017-12-16T03:27:32.859Z,29.85
2017-12-16T03:30:02.012Z,32.15
2017-12-16T03:32:28.893Z,34.92
2017-12-16T03:34:57.204Z,29.12
2017-12-16T03:39:59.874Z,27.52
2017-12-16T03:42:28.702Z,27.73
2017-12-16T03:44:56.988Z,31.15
2017-12-16T03:47:33.743Z,32.20
2017-12-16T03:50:04.010Z,31.80
2017-12-16T03:52:34.023Z,25.50
2017-12-16T03:55:04.492Z,29.35
2017-12-16T03:57:35.884Z,25.80
2017-12-16T04:00:06.819Z,30.65
2017-12-16T04:05:09.018Z,28.40
2017-12-16T04:07:38.587Z,29.58
2017-12-16T04:17:50.563Z,27.10
2017-12-16T04:20:19.187Z,29.27
2017-12-16T04:25:29.160Z,31.12
2017-12-16T04:33:11.434Z,38.65
2017-12-16T04:35:38.203Z,32.70
2017-12-16T04:38:12.475Z,31.83
2017-12-16T04:40:40.031Z,36.97
2017-12-16T04:43:10.289Z,36.00
2017-12-16T04:45:43.722Z,33.90
2017-12-16T04:48:11.362Z,32.97
2017-12-16T04:50:39.754Z,37.03
2017-12-16T04:53:07.936Z,40.00
2017-12-16T04:55:36.455Z,39.05
2017-12-16T04:58:03.314Z,36.45
2017-12-16T05:00:33.909Z,39.58
2017-12-16T05:03:05.751Z,38.78
2017-12-16T05:08:07.114Z,38.25
2017-12-16T05:15:38.735Z,36.65
2017-12-16T05:20:41.391Z,41.55
2017-12-16T05:23:09.362Z,30.88
2017-12-16T05:25:38.180Z,31.15
2017-12-16T05:28:08.527Z,27.55
2017-12-16T05:33:10.823Z,24.95
2017-12-16T05:35:42.496Z,29.20
2017-12-16T05:38:11.205Z,26.50
2017-12-16T05:43:10.998Z,25.30
2017-12-16T05:48:17.919Z,27.73
2017-12-16T05:50:47.389Z,29.92
2017-12-16T05:55:54.369Z,30.73
2017-12-16T05:58:27.634Z,27.30
2017-12-16T06:00:54.967Z,34.03
2017-12-16T06:03:23.726Z,31.35
2017-12-16T06:05:57.911Z,29.23
2017-12-16T06:08:26.271Z,31.27
2017-12-16T06:15:56.707Z,31.30
2017-12-16T06:21:07.182Z,26.12
2017-12-16T06:23:38.547Z,31.42
2017-12-16T06:26:08.454Z,38.65
2017-12-16T06:28:41.883Z,31.83
2017-12-16T06:31:09.926Z,31.17
2017-12-16T06:33:43.764Z,32.45
2017-12-16T06:38:48.270Z,32.67
2017-12-16T06:43:46.744Z,37.13
2017-12-16T06:51:25.155Z,35.67
2017-12-16T06:53:58.073Z,37.03
2017-12-16T06:56:24.842Z,33.55
2017-12-16T06:58:53.798Z,34.40
2017-12-16T07:01:21.202Z,35.13
2017-12-16T07:06:19.202Z,36.05
2017-12-16T07:08:45.970Z,31.23
2017-12-16T07:13:46.317Z,32.28
2017-12-16T07:16:13.766Z,31.62
2017-12-16T07:18:41.445Z,31.73
2017-12-16T07:21:12.755Z,28.90
2017-12-16T07:23:44.663Z,28.30
2017-12-16T07:28:46.052Z,31.42
2017-12-16T07:31:16.725Z,30.58
2017-12-16T07:33:48.060Z,31.10
2017-12-16T07:36:20.764Z,32.60
2017-12-16T07:38:47.955Z,31.85
2017-12-16T07:41:16.542Z,32.40
2017-12-16T07:43:43.358Z,32.60
2017-12-16T07:48:41.124Z,34.08
2017-12-16T07:51:07.903Z,29.90
2017-12-16T07:53:35.471Z,34.40
2017-12-16T07:58:33.282Z,33.25
2017-12-16T08:01:00.035Z,36.47
2017-12-16T08:03:26.962Z,37.58
2017-12-16T08:05:53.777Z,31.70
2017-12-16T08:08:22.632Z,35.90
2017-12-16T08:10:49.371Z,32.75
2017-12-16T08:13:16.105Z,36.55
2017-12-16T08:15:42.888Z,32.22
2017-12-16T08:18:09.684Z,32.92
2017-12-16T08:20:36.483Z,32.65
2017-12-16T08:23:03.651Z,34.40
2017-12-16T08:25:31.919Z,36.05
2017-12-16T08:27:58.699Z,31.67
2017-12-16T08:30:25.919Z,35.13
2017-12-16T08:32:52.726Z,34.15
2017-12-16T08:35:23.206Z,31.25
2017-12-16T08:40:23.222Z,29.23
2017-12-16T08:42:49.995Z,33.45
2017-12-16T08:45:16.740Z,32.65
2017-12-16T08:47:44.058Z,35.63
2017-12-16T08:50:10.787Z,28.27
2017-12-16T08:52:37.542Z,28.92
2017-12-16T08:55:05.095Z,26.98
2017-12-16T09:00:02.831Z,36.05
2017-12-16T09:02:29.586Z,27.33
2017-12-16T09:04:56.334Z,28.48
2017-12-16T09:07:23.782Z,30.48
2017-12-16T09:09:50.518Z,30.25
2017-12-16T09:12:19.233Z,28.33
2017-12-16T09:14:46.705Z,27.37
2017-12-16T09:17:13.474Z,31.98
2017-12-16T09:19:40.199Z,33.30
2017-12-16T09:22:08.667Z,25.33
2017-12-16T09:24:35.414Z,27.10
2017-12-16T09:27:02.147Z,25.85
2017-12-16T09:29:29.366Z,26.48
2017-12-16T09:31:57.482Z,27.10
2017-12-16T09:34:24.201Z,24.95
2017-12-16T09:36:50.941Z,27.30
2017-12-16T09:39:17.664Z,28.58
2017-12-16T09:41:44.402Z,27.85
2017-12-16T09:44:11.131Z,27.25
2017-12-16T09:46:39.011Z,22.30
2017-12-16T09:49:07.963Z,22.83
2017-12-16T09:51:34.691Z,27.02
2017-12-16T09:54:01.435Z,29.58
2017-12-16T09:56:28.153Z,27.67
2017-12-16T09:58:54.903Z,22.13
2017-12-16T10:01:21.630Z,21.55
2017-12-16T10:03:49.242Z,21.80
2017-12-16T10:06:15.983Z,22.00
2017-12-16T10:08:42.719Z,22.20
2017-12-16T10:11:09.434Z,19.65
2017-12-16T10:13:36.202Z,18.73
2017-12-16T10:16:02.946Z,21.48
2017-12-16T10:18:29.691Z,23.92
2017-12-16T10:20:56.706Z,19.58
2017-12-16T10:23:23.436Z,21.12
2017-12-16T10:25:50.146Z,23.02
2017-12-16T10:28:16.899Z,15.82
2017-12-16T10:30:43.624Z,19.75
2017-12-16T10:33:10.359Z,21.08
2017-12-16T10:35:37.085Z,24.02
2017-12-16T10:38:03.822Z,18.23
2017-12-16T10:40:30.562Z,18.87
2017-12-16T10:42:57.306Z,18.50
2017-12-16T10:45:24.042Z,18.98
2017-12-16T10:47:50.783Z,18.08
2017-12-16T10:50:17.506Z,19.42
2017-12-16T10:52:44.270Z,19.98
2017-12-16T10:55:12.086Z,18.08
2017-12-16T10:57:38.823Z,19.95
2017-12-16T11:00:05.554Z,17.73
2017-12-16T11:02:32.282Z,18.35
2017-12-16T11:04:59.786Z,16.27
2017-12-16T11:07:26.535Z,16.70
2017-12-16T11:09:53.278Z,16.70
2017-12-16T11:12:20.042Z,14.32
2017-12-16T11:14:46.966Z,17.48
2017-12-16T11:17:13.714Z,15.50
2017-12-16T11:19:40.478Z,17.92
2017-12-16T11:22:07.280Z,19.85
2017-12-16T11:24:34.034Z,18.23
2017-12-16T11:27:00.746Z,13.82
2017-12-16T11:29:27.525Z,13.43
2017-12-16T11:31:54.285Z,11.93
2017-12-16T11:34:24.865Z,15.93
2017-12-16T11:36:52.543Z,17.00
2017-12-16T11:39:27.026Z,15.55
2017-12-16T11:41:55.377Z,11.20
2017-12-16T11:47:12.665Z,9.73
2017-12-16T11:49:41.687Z,13.98
2017-12-16T11:52:11.412Z,10.98
2017-12-16T11:54:40.575Z,10.63
2017-12-16T11:57:08.447Z,8.07
2017-12-16T11:59:36.621Z,12.50
2017-12-16T12:02:04.715Z,8.32
2017-12-16T12:04:36.058Z,13.00
2017-12-16T12:07:07.172Z,9.27
2017-12-16T12:09:34.043Z,12.15
2017-12-16T12:12:09.318Z,14.52
2017-12-16T12:14:36.974Z,13.35
2017-12-16T12:17:04.654Z,13.93
2017-12-16T12:19:32.931Z,9.15
2017-12-16T12:22:24.821Z,12.23
2017-12-16T12:24:52.164Z,11.43
2017-12-16T12:27:18.948Z,10.30
2017-12-16T12:29:46.847Z,8.70
2017-12-16T12:32:13.570Z,9.60
2017-12-16T12:34:40.335Z,8.90
2017-12-16T12:37:07.059Z,9.27
2017-12-16T12:39:33.790Z,6.90
2017-12-16T12:42:00.524Z,9.10
2017-12-16T12:44:27.260Z,10.27
2017-12-16T12:46:55.202Z,8.38
2017-12-16T12:49:22.097Z,8.55
2017-12-16T12:51:48.874Z,10.75
2017-12-16T12:54:15.736Z,7.75
2017-12-16T12:56:42.498Z,8.10
2017-12-16T12:59:09.261Z,7.80
2017-12-16T13:01:35.979Z,8.73
2017-12-16T13:04:02.751Z,13.30
2017-12-16T13:06:29.598Z,7.43
2017-12-16T13:08:56.503Z,6.87
2017-12-16T13:11:23.458Z,6.75
2017-12-16T13:13:50.200Z,8.15
2017-12-16T13:16:17.043Z,9.65
2017-12-16T13:18:43.794Z,7.50
2017-12-16T13:21:10.527Z,4.30
2017-12-16T13:23:37.251Z,4.95
2017-12-16T13:26:04.019Z,5.70
2017-12-16T13:28:30.737Z,6.87
2017-12-16T13:30:57.510Z,6.55
2017-12-16T13:33:24.310Z,5.35
2017-12-16T13:35:51.062Z,7.22
2017-12-16T13:38:17.842Z,3.78
2017-12-16T13:40:44.610Z,4.20
2017-12-16T13:43:11.411Z,5.30
2017-12-16T13:45:38.183Z,4.60
2017-12-16T13:48:04.931Z,5.40
2017-12-16T13:50:32.243Z,6.90
2017-12-16T13:52:59.038Z,2.22
2017-12-16T13:55:25.794Z,5.18
2017-12-16T13:57:52.511Z,2.60
2017-12-16T14:00:19.292Z,4.70
2017-12-16T14:02:46.020Z,4.18
2017-12-16T14:05:12.759Z,5.47
2017-12-16T14:07:39.499Z,7.60
2017-12-16T14:10:06.235Z,2.35
2017-12-16T14:12:33.346Z,4.00
2017-12-16T14:15:00.149Z,4.07
2017-12-16T14:17:27.861Z,6.55
2017-12-16T14:19:54.814Z,5.07
2017-12-16T14:22:21.954Z,7.10
2017-12-16T14:24:49.482Z,3.80
2017-12-16T14:27:16.372Z,2.95
2017-12-16T14:29:43.150Z,4.45
2017-12-16T14:32:09.930Z,6.70
2017-12-16T14:34:37.335Z,3.08
2017-12-16T14:37:05.748Z,2.40
2017-12-16T14:39:32.484Z,9.25
2017-12-16T14:41:59.271Z,4.57
2017-12-16T14:44:26.030Z,3.37
2017-12-16T14:46:53.370Z,4.50
2017-12-16T14:49:20.096Z,2.95
2017-12-16T14:51:46.843Z,5.75
2017-12-16T14:54:13.607Z,4.07
2017-12-16T14:56:40.322Z,8.57
2017-12-16T14:59:07.048Z,2.97
2017-12-16T15:01:33.835Z,5.50
2017-12-16T15:04:00.834Z,6.37
2017-12-16T15:06:27.559Z,4.80
2017-12-16T15:08:54.350Z,5.57
2017-12-16T15:11:21.531Z,5.15
2017-12-16T15:13:48.277Z,2.45
2017-12-16T15:16:15.906Z,6.95
2017-12-16T15:18:42.642Z,4.25
2017-12-16T15:21:09.370Z,5.47
2017-12-16T15:23:36.106Z,3.55
2017-12-16T15:26:02.839Z,3.03
2017-12-16T15:28:29.602Z,6.25
2017-12-16T15:30:56.351Z,6.30
2017-12-16T15:33:23.137Z,2.47
2017-12-16T15:35:49.900Z,4.32
2017-12-16T15:38:16.631Z,3.20
2017-12-16T15:40:43.463Z,6.55
2017-12-16T15:43:11.863Z,3.37
2017-12-16T15:45:38.630Z,4.05
2017-12-16T15:48:06.410Z,3.00
2017-12-16T15:50:33.424Z,5.78
2017-12-16T15:53:00.151Z,3.60
2017-12-16T15:55:26.902Z,4.37
2017-12-16T15:57:53.627Z,6.65
2017-12-16T16:00:20.388Z,5.28
2017-12-16T16:02:47.135Z,2.53
2017-12-16T16:05:13.903Z,4.57
2017-12-16T16:07:40.662Z,8.75
2017-12-16T16:10:08.095Z,6.55
2017-12-16T16:12:35.726Z,9.73
2017-12-16T16:15:02.471Z,7.15
2017-12-16T16:17:29.206Z,6.12
2017-12-16T16:19:55.926Z,6.18
2017-12-16T16:22:22.738Z,5.93
2017-12-16T16:24:49.518Z,4.55
2017-12-16T16:27:16.258Z,3.00
2017-12-16T16:29:43.071Z,3.95
2017-12-16T16:32:09.802Z,5.32
2017-12-16T16:34:36.643Z,2.15
2017-12-16T16:37:03.398Z,5.90
2017-12-16T16:39:30.150Z,7.18
2017-12-16T16:41:56.927Z,6.80
2017-12-16T16:44:24.502Z,6.07
2017-12-16T16:46:52.617Z,4.70
2017-12-16T16:49:19.824Z,5.07
2017-12-16T16:51:46.538Z,6.90
2017-12-16T16:54:14.291Z,3.97
2017-12-16T16:56:41.050Z,8.68
2017-12-16T16:59:07.788Z,8.05
2017-12-16T17:01:34.747Z,5.72
2017-12-16T17:04:01.497Z,5.68
2017-12-16T17:06:28.314Z,5.62
2017-12-16T17:08:55.076Z,7.07
2017-12-16T17:11:21.869Z,7.97
2017-12-16T17:13:48.638Z,7.75
2017-12-16T17:16:15.375Z,5.53
2017-12-16T17:18:42.139Z,9.00
2017-12-16T17:21:08.922Z,5.37
2017-12-16T17:23:35.715Z,6.28
2017-12-16T17:26:02.475Z,7.87
2017-12-16T17:28:29.643Z,5.28
2017-12-16T17:30:56.382Z,6.10
2017-12-16T17:33:23.107Z,5.20
2017-12-16T17:35:49.895Z,7.85
2017-12-16T17:38:16.655Z,3.47
2017-12-16T17:40:43.487Z,5.62
2017-12-16T17:43:10.283Z,4.40
2017-12-16T17:45:37.000Z,5.55
2017-12-16T17:48:03.827Z,5.07
2017-12-16T17:50:30.559Z,5.90
2017-12-16T17:52:57.386Z,10.23
2017-12-16T17:55:24.455Z,6.05
2017-12-16T17:57:55.928Z,4.75
2017-12-16T18:00:23.917Z,5.37
2017-12-16T18:02:51.631Z,5.65
2017-12-16T18:05:20.705Z,6.43
2017-12-16T18:07:48.247Z,6.00
2017-12-16T18:10:15.055Z,5.95
2017-12-16T18:12:42.362Z,5.25
2017-12-16T18:15:09.931Z,5.30
2017-12-16T18:17:36.671Z,4.10
2017-12-16T18:20:04.359Z,7.00
2017-12-16T18:22:32.230Z,4.40
2017-12-16T18:25:01.821Z,4.37
2017-12-16T18:27:31.644Z,3.72
2017-12-16T18:30:02.243Z,5.68
2017-12-16T18:32:29.765Z,6.12
2017-12-16T18:34:59.382Z,3.85
2017-12-16T18:37:26.115Z,7.40
2017-12-16T18:40:02.418Z,5.37
2017-12-16T18:42:29.308Z,6.28
2017-12-16T18:44:58.043Z,4.18
2017-12-16T18:47:29.302Z,6.45
2017-12-16T18:52:34.602Z,5.37
2017-12-16T18:55:15.322Z,4.40
2017-12-16T18:57:42.894Z,5.43
2017-12-16T19:00:10.560Z,6.00
2017-12-16T19:02:41.208Z,4.18
2017-12-16T19:05:08.075Z,6.32
2017-12-16T19:07:37.856Z,5.95
2017-12-16T19:10:13.790Z,5.40
2017-12-16T19:15:15.822Z,5.87
2017-12-16T19:17:44.020Z,4.90
2017-12-16T19:20:10.774Z,7.35
2017-12-16T19:22:38.013Z,9.70
2017-12-16T19:25:04.804Z,7.62
2017-12-16T19:30:08.291Z,9.15
2017-12-16T19:37:38.813Z,9.30
2017-12-16T19:40:06.153Z,6.22
2017-12-16T19:45:07.207Z,8.35
2017-12-16T19:47:41.680Z,8.05
2017-12-16T19:50:12.471Z,5.22
2017-12-16T19:52:45.662Z,7.60
2017-12-16T19:55:14.053Z,8.63
2017-12-16T19:57:41.650Z,7.22
2017-12-16T20:00:09.464Z,6.90
2017-12-16T20:02:39.678Z,5.68
2017-12-16T20:05:07.410Z,6.65
2017-12-16T20:07:34.156Z,7.55
2017-12-16T20:10:02.190Z,7.10
2017-12-16T20:12:29.731Z,10.63
2017-12-16T20:14:56.558Z,7.68
2017-12-16T20:17:24.823Z,6.95
2017-12-16T20:19:51.919Z,9.65
2017-12-16T20:22:18.759Z,7.37
2017-12-16T20:24:46.239Z,7.30
2017-12-16T20:29:46.928Z,7.22
2017-12-16T20:32:13.890Z,7.87
2017-12-16T20:34:41.623Z,7.57
2017-12-16T20:37:08.358Z,9.45
2017-12-16T20:39:35.148Z,14.18
2017-12-16T20:42:01.967Z,9.45
2017-12-16T20:44:28.762Z,10.35
2017-12-16T20:46:55.551Z,11.25
2017-12-16T20:49:23.423Z,8.93
2017-12-16T20:51:51.647Z,9.40
2017-12-16T20:54:19.664Z,8.38
2017-12-16T20:56:46.901Z,9.50
2017-12-16T20:59:13.900Z,7.43
2017-12-16T21:01:41.594Z,8.25
2017-12-16T21:04:10.182Z,7.45
2017-12-16T21:06:38.321Z,6.82
2017-12-16T21:09:05.958Z,8.52
2017-12-16T21:11:40.355Z,11.10
2017-12-16T21:14:08.708Z,8.75
2017-12-16T21:16:36.471Z,10.85
2017-12-16T21:19:04.970Z,7.35
2017-12-16T21:21:31.775Z,8.93
2017-12-16T21:23:58.554Z,6.78
2017-12-16T21:26:26.021Z,12.85
2017-12-16T21:28:54.095Z,7.20
2017-12-16T21:31:21.822Z,8.18
2017-12-16T21:33:50.871Z,8.43
2017-12-16T21:36:18.935Z,7.80
2017-12-16T21:38:47.199Z,8.77
2017-12-16T21:41:14.024Z,10.27
2017-12-16T21:43:41.695Z,9.13
2017-12-16T21:46:08.471Z,12.23
2017-12-16T21:48:35.690Z,9.00
2017-12-16T21:51:02.454Z,8.45
2017-12-16T21:53:29.646Z,9.45
2017-12-16T21:55:57.175Z,8.55
2017-12-16T21:58:25.199Z,10.50
2017-12-16T22:00:52.837Z,9.80
2017-12-16T22:03:20.206Z,9.95
2017-12-16T22:05:47.631Z,7.78
2017-12-16T22:08:15.459Z,10.15
2017-12-16T22:10:43.920Z,7.87
2017-12-16T22:13:11.702Z,8.57
2017-12-16T22:15:40.116Z,10.15
2017-12-16T22:18:08.470Z,10.55
2017-12-16T22:20:35.868Z,7.55
2017-12-16T22:23:06.894Z,9.02
2017-12-16T22:25:34.296Z,10.27
2017-12-16T22:28:01.903Z,10.32
2017-12-16T22:30:29.450Z,7.78
2017-12-16T22:32:57.218Z,9.60
2017-12-16T22:35:24.099Z,8.10
2017-12-16T22:37:50.903Z,10.80
2017-12-16T22:40:19.709Z,8.02
2017-12-16T22:42:51.668Z,12.25
2017-12-16T22:45:18.399Z,8.02
2017-12-16T22:47:46.366Z,8.27
2017-12-16T22:50:14.881Z,9.73
2017-12-16T22:52:42.848Z,7.62
2017-12-16T22:55:09.609Z,12.05
2017-12-16T22:57:36.444Z,8.13
2017-12-16T23:00:03.226Z,7.60
2017-12-16T23:02:29.992Z,8.80
2017-12-16T23:04:56.771Z,10.52
2017-12-16T23:07:24.230Z,8.02
2017-12-16T23:09:51.090Z,9.98
2017-12-16T23:12:17.983Z,8.80
2017-12-16T23:14:44.995Z,9.23
2017-12-16T23:17:11.839Z,8.35
2017-12-16T23:19:38.687Z,10.20
2017-12-16T23:22:05.585Z,8.35
2017-12-16T23:24:34.431Z,7.62
2017-12-16T23:27:03.252Z,9.23
2017-12-16T23:29:33.579Z,10.85
2017-12-16T23:32:01.314Z,10.38
2017-12-16T23:34:30.285Z,8.65
2017-12-16T23:36:58.541Z,8.02
2017-12-16T23:39:25.895Z,9.10
2017-12-16T23:41:53.566Z,11.45
2017-12-16T23:44:22.295Z,10.55
2017-12-16T23:46:51.228Z,8.75
2017-12-16T23:49:20.778Z,13.65
2017-12-16T23:51:55.172Z,10.57
2017-12-16T23:54:28.715Z,10.15
2017-12-16T23:56:58.224Z,8.68
2017-12-16T23:59:28.524Z,8.38
